Perrinton, Michigan
Current Conditions -  °F | °C
As of 7:53 PM on Sunday 23 Nov 2014 (Local Time) from KAMN Reporting Station
Moderate Rain Moderate Rain  
Wind Chill: 45°   Ceiling: 400
Heat Index: 48°   Visibility: 4mi
Dew Point: 47°   Wind: 8mph
Humidity: 97%   Direction: 110°ESE
Pressure: 29.49"   Gusts: NA
Location:  43.18°N, 84.68°W
Report Text: KAMN 240053Z AUTO 11007KT 4SM RA BKN004 OVC011 09/09 A2949 RMK AO2 T00900086
Loading
Personal Weather Stations






























Interactive Weather Map New forecast layout! Learn more

10-Day Weather Forecast

Advertisements
Track Severe Weather on mobile